Flight Track Log - Related Links

Times and Time Zones

All times are in EDT time to prevent confusion due to time zone crossing. See the EJA941 flight status page for this flight to view local times or setup timezone preferences in your user account.

Time Position Orientation Groundspeed Altitude Reporting Facility
EDT Latitude Longitude Course Direction KTS MPH feet Rate Location/Type
Wed 09:13:22 AM 34.8269 -87.5261 29° Northeast 446 513 41,000  Level Memphis Center
Wed 09:14:21 AM 34.8947 -87.4858 26° Northeast 357 411 41,000  Level Memphis Center
Wed 09:15:21 AM 34.9689 -87.4403 27° Northeast 316 364 41,000  Level Memphis Center
Wed 09:16:21 AM 35.0489 -87.3869 29° Northeast 311 358 41,000 -12,750 Level Memphis Center
Wed 09:17:21 AM 35.1394 -87.3328 26° Northeast 326 375 15,500 -11,700 Descending Memphis Center
Wed 09:18:00 AM 35.3438 -87.2098 29° Northeast  Level FlightAware Approximate
Wed 09:18:21 AM 35.2297 -87.2736 28° Northeast 349 402 17,600  Level Memphis Center
Wed 09:19:21 AM 35.3219 -87.2142 28° Northeast 362 417 19,400 1,900 Climbing Memphis Center
Wed 09:20:21 AM 35.4267 -87.1467 28° Northeast 372 428 21,400 1,500 Climbing Memphis Center
Wed 09:21:21 AM 35.5292 -87.0814 27° Northeast 391 450 22,400 1,450 Climbing Memphis Center
Wed 09:22:21 AM 35.6381 -87.0108 28° Northeast 419 482 24,300 1,950 Climbing Memphis Center
Wed 09:23:21 AM 35.7467 -86.9397 28° Northeast 427 491 26,300 2,033 Climbing Memphis Center
Wed 09:25:21 AM 35.9656 -86.7972 28° Northeast 434 499 30,400 2,033 Climbing Memphis Center
Wed 09:26:21 AM 36.0781 -86.7206 29° Northeast 444 511 32,400 1,700 Climbing Memphis Center
Wed 09:27:21 AM 36.1969 -86.6483 26° Northeast 462 532 33,800 1,450 Climbing Memphis Center
Wed 09:28:21 AM 36.3261 -86.5756 24° Northeast 487 560 35,300 1,650 Climbing Memphis Center
Wed 09:29:21 AM 36.4553 -86.5075 23° Northeast 505 581 37,100 1,700 Climbing Memphis Center
Wed 09:30:21 AM 36.5822 -86.4394 23° Northeast 505 581 38,700 1,550 Climbing Memphis Center
Wed 09:31:21 AM 36.7133 -86.3658 24° Northeast 505 581 40,200 1,150 Climbing Memphis Center
Wed 09:32:21 AM 36.8403 -86.2947 24° Northeast 505 581 41,000 277 Climbing Memphis Center
Wed 09:34:14 AM 37.0864 -86.1567 24° Northeast 526 605 41,000  Level Indianapolis Center
Wed 09:35:16 AM 37.2225 -86.0811 24° Northeast 531 611 41,000  Level Indianapolis Center
Wed 09:36:19 AM 37.3536 -85.9919 28° Northeast 530 610 41,000  Level Indianapolis Center
Wed 09:37:21 AM 37.4825 -85.8944 31° Northeast 533 613 41,000  Level Indianapolis Center
Wed 09:38:23 AM 37.6039 -85.8039 31° Northeast 530 610 41,000  Level Indianapolis Center
Wed 09:39:25 AM 37.7564 -85.6867 31° Northeast 533 613 41,000  Level Indianapolis Center
Wed 09:40:27 AM 37.8825 -85.5906 31° Northeast 531 611 41,000  Level Indianapolis Center
Wed 09:41:29 AM 38.0078 -85.4936 31° Northeast 528 608 41,000  Level Indianapolis Center
Wed 09:42:31 AM 38.1331 -85.3964 31° Northeast 527 606 41,000 -194 Level Indianapolis Center
Wed 09:43:33 AM 38.2597 -85.2986 31° Northeast 531 611 40,600 -1,645 Descending Indianapolis Center
Wed 09:44:35 AM 38.3933 -85.1944 31° Northeast 517 595 37,600 -2,710 Descending Indianapolis Center
Wed 09:45:37 AM 38.5161 -85.0989 31° Northeast 516 594 35,000 -1,258 Descending Indianapolis Center
Wed 09:46:39 AM 38.6386 -85.0014 32° Northeast 522 601 35,000  Level Indianapolis Center
Wed 09:47:41 AM 38.7881 -84.8839 31° Northeast 539 620 35,000 -677 Level Indianapolis Center
Wed 09:48:43 AM 38.9103 -84.7856 32° Northeast 527 606 33,600 -1,403 Descending Indianapolis Center
Wed 09:49:45 AM 39.0356 -84.6828 32° Northeast 527 606 32,100 -1,452 Descending Indianapolis Center
Wed 09:50:47 AM 39.1519 -84.5633 38° Northeast 531 611 30,600 -1,452 Descending Indianapolis Center
Wed 09:51:49 AM 39.2672 -84.4425 39° Northeast 529 609 29,100 -774 Descending Indianapolis Center
Wed 09:52:51 AM 39.3792 -84.3242 39° Northeast 519 597 29,000 -48 Descending Indianapolis Center
Wed 09:53:53 AM 39.5136 -84.1817 39° Northeast 527 606 29,000  Level Indianapolis Center
Wed 09:54:55 AM 39.6286 -84.0600 39° Northeast 529 609 29,000  Level Indianapolis Center
Wed 09:55:57 AM 39.7442 -83.9375 39° Northeast 530 610 29,000 -290 Level Indianapolis Center
Wed 09:56:59 AM 39.8589 -83.8142 40° Northeast 526 605 28,400 -1,113 Descending Indianapolis Center
Wed 09:58:01 AM 39.9683 -83.6972 39° Northeast 502 578 26,700 -1,645 Descending Indianapolis Center
Wed 09:59:03 AM 40.0767 -83.5817 39° Northeast 490 564 25,000 -1,403 Descending Indianapolis Center
Wed 10:00:05 AM 40.1811 -83.4675 40° Northeast 482 555 23,800 -1,200 Descending Indianapolis Center
Wed 10:01:08 AM 40.2825 -83.3469 42° Northeast 486 559 22,500 -1,200 Descending Indianapolis Center
Wed 10:02:10 AM 40.3775 -83.2242 45° Northeast 476 548 21,300 -1,210 Descending Indianapolis Center
Wed 10:03:12 AM 40.4694 -83.1061 44° Northeast 461 531 20,000 -1,258 Descending Indianapolis Center
Wed 10:04:14 AM 40.5667 -82.9819 44° Northeast 436 502 18,700 -1,065 Descending Indianapolis Center
Wed 10:05:16 AM 40.6542 -82.8697 44° Northeast 436 502 17,800 -1,306 Descending Indianapolis Center
Wed 10:06:18 AM 40.7383 -82.7589 45° Northeast 426 490 16,000 -1,984 Descending Indianapolis Center
Wed 10:07:20 AM 40.8217 -82.6514 44° Northeast 416 479 13,700 -2,216 Descending Indianapolis Center
Wed 10:08:09 AM 40.8836 -82.5661 46° Northeast 405 466 11,900 -2,258 Descending Cleveland Center
Wed 10:08:53 AM 40.9497 -82.4856 43° Northeast 385 443 10,200 -1,900 Descending Cleveland Center
Wed 10:09:09 AM 40.9625 -82.4667 48° Northeast 389 448 10,000 -179 Descending Cleveland Center
Wed 10:10:00 AM 41.0264 -82.3803 46° Northeast 390 449 10,000  Level Cleveland Center
Wed 10:11:07 AM 41.1222 -82.2589 44° Northeast 398 458 10,000  Level Cleveland Center
Wed 10:12:02 AM 41.1858 -82.1725 46° Northeast 399 459 10,000 -49 Level Cleveland Center
Wed 10:13:09 AM 41.2769 -82.0722 40° Northeast 368 423 9,900 -694 Descending Cleveland Center
Wed 10:14:03 AM 41.3317 -82.0322 29° Northeast 278 320 8,600 -1,700 Descending Cleveland Center
Wed 10:15:09 AM 41.4117 -81.9647 32° Northeast 278 320 6,500 -1,762 Descending Cleveland Center
Wed 10:16:09 AM 41.4750 -81.9106 33° Northeast 269 310 4,900 -1,293 Descending Cleveland Center
Wed 10:17:05 AM 41.5275 -81.8728 28° Northeast 258 297 4,000 -649 Descending Cleveland Center
Wed 10:18:00 AM 41.5614 -81.8292 44° Northeast 233 268 3,700 -517 Descending Cleveland Center
Wed 10:19:01 AM 41.5869 -81.7658 62° Northeast 190 219 3,000 -590 Descending Cleveland Center
Wed 10:20:02 AM 41.6125 -81.7022 62° Northeast 184 212 2,500 -496 Descending Cleveland Center
Wed 10:21:02 AM 41.5881 -81.6519 123° Southeast 163 188 2,000 -545 Descending Cleveland Center
Wed 10:22:03 AM 41.5506 -81.6403 167° South 125 144 1,400 -590 Descending Cleveland Center

Login

Don't have an account? Register now (free) for customized features, flight alerts, and more!